createdAt,value
2017-09-04T00:00:28.591Z,72.17
2017-09-04T00:01:25.844Z,72.19
2017-09-04T00:02:23.085Z,72.20
2017-09-04T00:03:20.342Z,72.21
2017-09-04T00:04:17.604Z,72.21
2017-09-04T00:05:14.877Z,72.22
2017-09-04T00:06:12.167Z,72.24
2017-09-04T00:07:09.463Z,72.21
2017-09-04T00:08:06.698Z,72.22
2017-09-04T00:09:03.947Z,72.23
2017-09-04T00:10:01.220Z,72.25
2017-09-04T00:10:58.481Z,72.24
2017-09-04T00:11:55.749Z,72.26
2017-09-04T00:12:52.989Z,72.26
2017-09-04T00:13:50.242Z,72.25
2017-09-04T00:14:47.534Z,72.25
2017-09-04T00:15:44.783Z,72.25
2017-09-04T00:16:42.074Z,72.26
2017-09-04T00:17:39.446Z,72.26
2017-09-04T00:18:36.711Z,72.27
2017-09-04T00:19:33.939Z,72.29
2017-09-04T00:20:31.215Z,72.30
2017-09-04T00:21:28.478Z,72.30
2017-09-04T00:22:25.746Z,72.32
2017-09-04T00:23:23.013Z,72.33
2017-09-04T00:24:20.255Z,72.36
2017-09-04T00:25:17.510Z,72.34
2017-09-04T00:26:14.772Z,72.33
2017-09-04T00:27:12.013Z,72.32
2017-09-04T00:28:09.334Z,72.33
2017-09-04T00:29:06.563Z,72.33
2017-09-04T00:30:03.838Z,72.33
2017-09-04T00:31:01.073Z,72.34
2017-09-04T00:31:58.354Z,72.35
2017-09-04T00:32:55.569Z,72.34
2017-09-04T00:33:52.817Z,72.33
2017-09-04T00:34:50.038Z,72.34
2017-09-04T00:35:47.334Z,72.32
2017-09-04T00:36:44.570Z,72.32
2017-09-04T00:37:41.829Z,72.36
2017-09-04T00:38:39.083Z,72.34
2017-09-04T00:39:36.338Z,72.34
2017-09-04T00:40:33.594Z,72.34
2017-09-04T00:41:30.845Z,72.34
2017-09-04T00:42:28.082Z,72.34
2017-09-04T00:43:25.694Z,72.37
2017-09-04T00:44:22.918Z,72.38
2017-09-04T00:45:20.209Z,72.37
2017-09-04T00:46:17.449Z,72.39
2017-09-04T00:47:14.717Z,72.38
2017-09-04T00:48:11.954Z,72.38
2017-09-04T00:49:09.224Z,72.42
2017-09-04T00:50:06.447Z,72.41
2017-09-04T00:51:03.721Z,72.43
2017-09-04T00:52:00.945Z,72.43
2017-09-04T00:52:58.202Z,72.46
2017-09-04T00:53:55.414Z,72.47
2017-09-04T00:54:52.668Z,72.48
2017-09-04T00:55:49.918Z,72.50
2017-09-04T00:56:47.177Z,72.51
2017-09-04T00:57:44.436Z,72.51
2017-09-04T00:58:41.749Z,72.50
2017-09-04T00:59:38.982Z,72.50
2017-09-04T01:00:36.265Z,72.50
2017-09-04T01:01:33.531Z,72.53
2017-09-04T01:02:30.858Z,72.54
2017-09-04T01:03:34.091Z,72.57
2017-09-04T01:04:31.458Z,72.59
2017-09-04T01:05:28.825Z,72.62
2017-09-04T01:06:26.137Z,72.60
2017-09-04T01:07:23.501Z,72.63
2017-09-04T01:08:20.753Z,72.62
2017-09-04T01:09:17.994Z,72.64
2017-09-04T01:10:15.266Z,72.64
2017-09-04T01:11:12.522Z,72.65
2017-09-04T01:12:09.790Z,72.66
2017-09-04T01:13:07.013Z,72.65
2017-09-04T01:14:04.282Z,72.68
2017-09-04T01:15:01.539Z,72.67
2017-09-04T01:15:58.843Z,72.67
2017-09-04T01:16:56.093Z,72.69
2017-09-04T01:17:53.361Z,72.72
2017-09-04T01:18:50.593Z,72.73
2017-09-04T01:19:47.853Z,72.72
2017-09-04T01:20:45.234Z,72.73
2017-09-04T01:21:42.513Z,72.73
2017-09-04T01:22:39.761Z,72.74
2017-09-04T01:23:37.005Z,72.76
2017-09-04T01:24:34.249Z,72.77
2017-09-04T01:25:31.533Z,72.77
2017-09-04T01:26:28.964Z,72.76
2017-09-04T01:27:26.315Z,72.77
2017-09-04T01:28:23.588Z,72.77
2017-09-04T01:29:20.857Z,72.78
2017-09-04T01:30:18.127Z,72.79
2017-09-04T01:31:15.406Z,72.79
2017-09-04T01:32:12.673Z,72.80
2017-09-04T01:33:09.977Z,72.81
2017-09-04T01:34:07.228Z,72.83
2017-09-04T01:35:04.494Z,72.82
2017-09-04T01:36:01.734Z,72.85
2017-09-04T01:36:59.023Z,72.82
2017-09-04T01:37:56.245Z,72.84
2017-09-04T01:38:53.507Z,72.81
2017-09-04T01:39:50.748Z,72.81
2017-09-04T01:40:48.013Z,72.79
2017-09-04T01:41:45.274Z,72.81
2017-09-04T01:42:42.561Z,72.81
2017-09-04T01:43:39.798Z,72.80
2017-09-04T01:44:37.062Z,72.82
2017-09-04T01:45:34.691Z,72.87
2017-09-04T01:46:31.957Z,72.85
2017-09-04T01:47:29.230Z,72.89
2017-09-04T01:48:26.490Z,72.92
2017-09-04T01:49:23.709Z,72.92
2017-09-04T01:50:20.961Z,72.92
2017-09-04T01:51:18.206Z,72.91
2017-09-04T01:52:15.502Z,72.94
2017-09-04T01:53:12.726Z,72.96
2017-09-04T01:54:09.988Z,72.98
2017-09-04T01:55:07.228Z,72.97
2017-09-04T01:56:04.482Z,72.97
2017-09-04T01:57:01.711Z,72.98
2017-09-04T01:57:59.013Z,73.00
2017-09-04T01:58:56.306Z,73.01
2017-09-04T01:59:53.574Z,73.04
2017-09-04T02:00:50.814Z,73.04
2017-09-04T02:01:48.058Z,73.04
2017-09-04T02:02:45.321Z,73.07
2017-09-04T02:03:42.607Z,73.06
2017-09-04T02:04:39.837Z,73.07
2017-09-04T02:05:37.081Z,73.10
2017-09-04T02:06:34.323Z,73.13
2017-09-04T02:07:31.581Z,73.14
2017-09-04T02:08:28.821Z,73.16
2017-09-04T02:09:26.073Z,73.18
2017-09-04T02:10:23.305Z,73.18
2017-09-04T02:11:20.578Z,73.18
2017-09-04T02:12:17.858Z,73.19
2017-09-04T02:13:15.143Z,73.19
2017-09-04T02:14:12.393Z,73.19
2017-09-04T02:15:09.659Z,73.17
2017-09-04T02:16:06.882Z,73.21
2017-09-04T02:17:04.153Z,73.21
2017-09-04T02:18:01.410Z,73.20
2017-09-04T02:18:58.685Z,73.23
2017-09-04T02:19:55.934Z,73.23
2017-09-04T02:20:53.198Z,73.25
2017-09-04T02:21:50.438Z,73.25
2017-09-04T02:22:47.713Z,73.26
2017-09-04T02:23:44.973Z,73.28
2017-09-04T02:24:42.222Z,73.28
2017-09-04T02:25:39.469Z,73.28
2017-09-04T02:26:36.725Z,73.29
2017-09-04T02:27:34.021Z,73.31
2017-09-04T02:28:31.321Z,73.32
2017-09-04T02:29:28.571Z,73.33
2017-09-04T02:30:26.190Z,73.36
2017-09-04T02:31:23.434Z,73.36
2017-09-04T02:32:20.706Z,73.39
2017-09-04T02:33:17.985Z,73.37
2017-09-04T02:34:15.237Z,73.37
2017-09-04T02:35:12.476Z,73.37
2017-09-04T02:36:09.741Z,73.38
2017-09-04T02:37:06.970Z,73.40
2017-09-04T02:38:04.237Z,73.41
2017-09-04T02:39:01.590Z,73.40
2017-09-04T02:39:58.921Z,73.42
2017-09-04T02:40:56.164Z,73.41
2017-09-04T02:41:53.406Z,73.44
2017-09-04T02:42:50.622Z,73.44
2017-09-04T02:43:47.898Z,73.44
2017-09-04T02:44:45.107Z,73.45
2017-09-04T02:45:42.394Z,73.45
2017-09-04T02:46:39.618Z,73.46
2017-09-04T02:47:36.897Z,73.46
2017-09-04T02:48:34.123Z,73.47
2017-09-04T02:49:31.444Z,73.47
2017-09-04T02:50:28.680Z,73.49
2017-09-04T02:51:25.934Z,73.52
2017-09-04T02:52:23.323Z,73.56
2017-09-04T02:53:20.738Z,73.55
2017-09-04T02:54:17.985Z,73.56
2017-09-04T02:55:15.250Z,73.57
2017-09-04T02:56:12.553Z,73.59
2017-09-04T02:57:09.818Z,73.58
2017-09-04T02:58:07.072Z,73.60
2017-09-04T02:59:04.371Z,73.61
2017-09-04T03:00:01.638Z,73.63
2017-09-04T03:00:58.930Z,73.64
2017-09-04T03:01:56.190Z,73.69
2017-09-04T03:02:53.481Z,73.69
2017-09-04T03:03:50.733Z,73.68
2017-09-04T03:04:48.017Z,73.70
2017-09-04T03:05:45.293Z,73.71
2017-09-04T03:06:42.545Z,73.73
2017-09-04T03:07:39.798Z,73.72
2017-09-04T03:08:37.069Z,73.74
2017-09-04T03:09:34.352Z,73.74
2017-09-04T03:10:31.646Z,73.73
2017-09-04T03:11:28.873Z,73.74
2017-09-04T03:12:26.150Z,73.75
2017-09-04T03:13:23.377Z,73.75
2017-09-04T03:14:20.670Z,73.74
2017-09-04T03:15:17.938Z,73.73
2017-09-04T03:16:15.234Z,73.72
2017-09-04T03:17:12.498Z,73.72
2017-09-04T03:18:09.758Z,73.71
2017-09-04T03:19:06.976Z,73.71
2017-09-04T03:20:04.241Z,73.73
2017-09-04T03:21:01.466Z,73.75
2017-09-04T03:21:58.719Z,73.74
2017-09-04T03:22:55.965Z,73.78
2017-09-04T03:23:53.221Z,73.78
2017-09-04T03:24:50.470Z,73.78
2017-09-04T03:25:47.734Z,73.75
2017-09-04T03:26:44.963Z,73.76
2017-09-04T03:27:42.234Z,73.77
2017-09-04T03:28:39.453Z,73.78
2017-09-04T03:29:36.730Z,73.78
2017-09-04T03:30:33.976Z,73.76
2017-09-04T03:31:31.274Z,73.75
2017-09-04T03:32:28.521Z,73.76
2017-09-04T03:33:25.769Z,73.78
2017-09-04T03:34:23.011Z,73.78
2017-09-04T03:35:20.286Z,73.80
2017-09-04T03:36:17.515Z,73.79
2017-09-04T03:37:14.766Z,73.80
2017-09-04T03:38:12.024Z,73.79
2017-09-04T03:39:09.277Z,73.83
2017-09-04T03:40:06.557Z,73.84
2017-09-04T03:41:05.849Z,73.85
2017-09-04T03:42:03.109Z,73.85
2017-09-04T03:43:00.417Z,73.87
2017-09-04T03:44:00.155Z,73.88
2017-09-04T03:44:57.437Z,73.89
2017-09-04T03:45:54.815Z,73.92
2017-09-04T03:46:52.146Z,73.93
2017-09-04T03:47:49.498Z,73.91
2017-09-04T03:48:46.777Z,73.94
2017-09-04T03:49:44.124Z,73.95
2017-09-04T03:50:41.453Z,73.96
2017-09-04T03:51:38.770Z,73.97
2017-09-04T03:52:36.090Z,73.97
2017-09-04T03:53:33.482Z,73.97
2017-09-04T03:54:30.782Z,73.98
2017-09-04T03:55:28.174Z,73.99
2017-09-04T03:56:25.466Z,73.99
2017-09-04T03:57:22.786Z,74.00
2017-09-04T03:58:20.074Z,74.02
2017-09-04T03:59:19.385Z,74.03
2017-09-04T04:00:16.598Z,74.00
2017-09-04T04:01:13.869Z,74.03
2017-09-04T04:02:11.133Z,74.02
2017-09-04T04:03:08.398Z,74.04
2017-09-04T04:04:05.641Z,74.07
2017-09-04T04:05:02.930Z,74.07
2017-09-04T04:06:00.212Z,74.07
2017-09-04T04:06:57.493Z,74.07
2017-09-04T04:07:54.802Z,74.09
2017-09-04T04:08:52.117Z,74.07
2017-09-04T04:09:49.383Z,74.09
2017-09-04T04:10:46.686Z,74.12
2017-09-04T04:11:43.926Z,74.13
2017-09-04T04:12:41.214Z,74.14
2017-09-04T04:13:38.497Z,74.16
2017-09-04T04:14:35.758Z,74.14
2017-09-04T04:15:33.061Z,74.15
2017-09-04T04:16:30.398Z,74.17
2017-09-04T04:17:27.652Z,74.15
2017-09-04T04:18:24.943Z,74.15
2017-09-04T04:19:22.198Z,74.17
2017-09-04T04:20:19.489Z,74.16
2017-09-04T04:21:16.785Z,74.17
2017-09-04T04:22:14.162Z,74.17
2017-09-04T04:23:11.421Z,74.19
2017-09-04T04:24:08.674Z,74.20
2017-09-04T04:25:05.911Z,74.21
2017-09-04T04:26:03.279Z,74.20
2017-09-04T04:27:00.609Z,74.22
2017-09-04T04:27:57.889Z,74.22
2017-09-04T04:28:55.189Z,74.24
2017-09-04T04:29:52.485Z,74.24
2017-09-04T04:30:49.750Z,74.27
2017-09-04T04:31:47.036Z,74.26
2017-09-04T04:32:44.296Z,74.29
2017-09-04T04:33:41.602Z,74.27
2017-09-04T04:34:38.878Z,74.28
2017-09-04T04:35:36.150Z,74.32
2017-09-04T04:36:33.414Z,74.33
2017-09-04T04:37:30.740Z,74.33
2017-09-04T04:38:27.979Z,74.36
2017-09-04T04:39:25.278Z,74.36
2017-09-04T04:40:22.582Z,74.39
2017-09-04T04:41:19.926Z,74.38
2017-09-04T04:42:17.201Z,74.38
2017-09-04T04:43:14.478Z,74.39
2017-09-04T04:44:11.717Z,74.39
2017-09-04T04:45:09.015Z,74.39
2017-09-04T04:46:06.262Z,74.42
2017-09-04T04:47:03.593Z,74.43
2017-09-04T04:48:00.842Z,74.44
2017-09-04T04:48:58.136Z,74.45
2017-09-04T04:49:55.411Z,74.49
2017-09-04T04:50:52.675Z,74.52
2017-09-04T04:51:49.946Z,74.52
2017-09-04T04:52:47.267Z,74.50
2017-09-04T04:53:44.517Z,74.53
2017-09-04T04:54:41.794Z,74.55
2017-09-04T04:55:39.030Z,74.57
2017-09-04T04:56:36.326Z,74.58
2017-09-04T04:57:33.582Z,74.61
2017-09-04T04:58:30.863Z,74.63
2017-09-04T04:59:28.130Z,74.65
2017-09-04T05:00:25.415Z,74.66
2017-09-04T05:01:22.662Z,74.68
2017-09-04T05:02:19.969Z,74.70
2017-09-04T05:03:17.234Z,74.72
2017-09-04T05:04:14.514Z,74.73
2017-09-04T05:05:11.762Z,74.73
2017-09-04T05:06:09.074Z,74.74
2017-09-04T05:07:06.344Z,74.74
2017-09-04T05:08:03.687Z,74.75
2017-09-04T05:09:00.938Z,74.76
2017-09-04T05:09:58.230Z,74.76
2017-09-04T05:10:55.467Z,74.78
2017-09-04T05:11:52.770Z,74.78
2017-09-04T05:12:50.019Z,74.81
2017-09-04T05:13:47.290Z,74.83
2017-09-04T05:14:44.548Z,74.86
2017-09-04T05:15:41.820Z,74.86
2017-09-04T05:16:39.139Z,74.88
2017-09-04T05:17:36.435Z,74.89
2017-09-04T05:18:33.669Z,74.91
2017-09-04T05:19:30.942Z,74.90
2017-09-04T05:20:28.197Z,74.92
2017-09-04T05:21:25.437Z,74.96
2017-09-04T05:22:22.686Z,74.98
2017-09-04T05:23:19.965Z,74.99
2017-09-04T05:24:17.257Z,75.01
2017-09-04T05:25:14.539Z,75.01
2017-09-04T05:26:11.775Z,75.06
2017-09-04T05:27:09.059Z,75.05
2017-09-04T05:28:06.783Z,75.07
2017-09-04T05:29:04.077Z,75.09
2017-09-04T05:30:01.310Z,75.12
2017-09-04T05:30:58.560Z,75.15
2017-09-04T05:31:55.799Z,75.17
2017-09-04T05:32:53.098Z,75.16
2017-09-04T05:33:50.318Z,75.17
2017-09-04T05:34:47.624Z,75.19
2017-09-04T05:35:44.847Z,75.21
2017-09-04T05:36:42.160Z,75.22
2017-09-04T05:37:39.389Z,75.24
2017-09-04T05:38:36.674Z,75.25
2017-09-04T05:39:33.885Z,75.26
2017-09-04T05:40:31.126Z,75.27
2017-09-04T05:41:28.355Z,75.29
2017-09-04T05:42:25.604Z,75.30
2017-09-04T05:43:22.847Z,75.30
2017-09-04T05:44:20.092Z,75.31
2017-09-04T05:45:17.299Z,75.31
2017-09-04T05:46:14.529Z,75.32
2017-09-04T05:47:13.833Z,75.29
2017-09-04T05:48:11.130Z,75.33
2017-09-04T05:49:08.393Z,75.33
2017-09-04T05:50:05.589Z,75.34
2017-09-04T05:51:02.849Z,75.34
2017-09-04T05:52:00.093Z,75.35
2017-09-04T05:52:57.358Z,75.38
2017-09-04T05:53:54.581Z,75.40
2017-09-04T05:54:51.833Z,75.41
2017-09-04T05:55:49.041Z,75.44
2017-09-04T05:56:46.301Z,75.47
2017-09-04T05:57:43.525Z,75.47
2017-09-04T05:58:40.790Z,75.49
2017-09-04T05:59:38.026Z,75.50
2017-09-04T06:00:35.276Z,75.53
2017-09-04T06:01:32.510Z,75.53
2017-09-04T06:02:29.761Z,75.57
2017-09-04T06:03:27.045Z,75.57
2017-09-04T06:04:24.379Z,75.59
2017-09-04T06:05:21.622Z,75.61
2017-09-04T06:06:18.898Z,75.61
2017-09-04T06:07:16.150Z,75.62
2017-09-04T06:08:13.406Z,75.62
2017-09-04T06:09:10.653Z,75.65
2017-09-04T06:10:07.898Z,75.68
2017-09-04T06:11:05.112Z,75.69
2017-09-04T06:12:02.354Z,75.72
2017-09-04T06:12:59.561Z,75.73
2017-09-04T06:13:56.865Z,75.77
2017-09-04T06:14:54.698Z,75.80
2017-09-04T06:15:51.946Z,75.83
2017-09-04T06:16:49.160Z,75.87
2017-09-04T06:17:46.422Z,75.89
2017-09-04T06:18:43.673Z,75.93
2017-09-04T06:19:40.934Z,75.97
2017-09-04T06:20:38.221Z,76.02
2017-09-04T06:21:35.479Z,76.06
2017-09-04T06:22:32.713Z,76.09
2017-09-04T06:23:29.990Z,76.12
2017-09-04T06:24:27.233Z,76.17
2017-09-04T06:25:24.481Z,76.20
2017-09-04T06:26:21.714Z,76.20
2017-09-04T06:27:18.981Z,76.22
2017-09-04T06:28:16.242Z,76.24
2017-09-04T06:29:13.517Z,76.25
2017-09-04T06:30:10.742Z,76.25
2017-09-04T06:31:07.991Z,76.27
2017-09-04T06:32:05.206Z,76.28
2017-09-04T06:33:02.461Z,76.29
2017-09-04T06:33:59.713Z,76.31
2017-09-04T06:34:56.999Z,76.31
2017-09-04T06:35:54.226Z,76.32
2017-09-04T06:36:51.474Z,76.35
2017-09-04T06:37:48.713Z,76.37
2017-09-04T06:38:45.954Z,76.41
2017-09-04T06:39:43.202Z,76.43
2017-09-04T06:40:40.454Z,76.42
2017-09-04T06:41:37.689Z,76.46
2017-09-04T06:42:34.952Z,76.49
2017-09-04T06:43:32.206Z,76.53
2017-09-04T06:44:29.473Z,76.54
2017-09-04T06:45:26.725Z,76.57
2017-09-04T06:46:24.007Z,76.58
2017-09-04T06:47:21.233Z,76.60
2017-09-04T06:48:18.515Z,76.62
2017-09-04T06:49:15.747Z,76.64
2017-09-04T06:50:13.026Z,76.67
2017-09-04T06:51:10.245Z,76.67
2017-09-04T06:52:07.494Z,76.70
2017-09-04T06:53:04.718Z,76.75
2017-09-04T06:54:01.962Z,76.78
2017-09-04T06:54:59.194Z,76.83
2017-09-04T06:55:56.894Z,76.87
2017-09-04T06:56:54.133Z,76.90
2017-09-04T06:57:51.390Z,76.95
2017-09-04T06:58:48.618Z,76.93
2017-09-04T06:59:45.901Z,76.97
2017-09-04T07:00:43.126Z,76.99
2017-09-04T07:01:40.375Z,77.01
2017-09-04T07:02:37.628Z,77.05
2017-09-04T07:03:34.886Z,77.07
2017-09-04T07:04:32.125Z,77.14
2017-09-04T07:05:29.412Z,77.17
2017-09-04T07:06:26.634Z,77.23
2017-09-04T07:07:23.896Z,77.31
2017-09-04T07:08:21.143Z,77.35
2017-09-04T07:09:18.402Z,77.39
2017-09-04T07:10:15.671Z,77.40
2017-09-04T07:11:12.933Z,77.43
2017-09-04T07:12:10.137Z,77.48
2017-09-04T07:13:07.390Z,77.50
2017-09-04T07:14:04.638Z,77.54
2017-09-04T07:15:01.882Z,77.59
2017-09-04T07:15:59.125Z,77.65
2017-09-04T07:16:56.371Z,77.68
2017-09-04T07:17:53.734Z,77.74
2017-09-04T07:18:50.997Z,77.79
2017-09-04T07:19:48.205Z,77.86
2017-09-04T07:20:45.486Z,77.91
2017-09-04T07:21:42.725Z,78.00
2017-09-04T07:22:39.986Z,78.06
2017-09-04T07:23:37.222Z,78.12
2017-09-04T07:24:34.478Z,78.18
2017-09-04T07:25:31.731Z,78.22
2017-09-04T07:26:28.987Z,78.25
2017-09-04T07:27:26.275Z,78.31
2017-09-04T07:28:23.536Z,78.35
2017-09-04T07:29:20.782Z,78.37
2017-09-04T07:30:18.021Z,78.41
2017-09-04T07:31:15.302Z,78.45
2017-09-04T07:32:12.555Z,78.48
2017-09-04T07:33:09.793Z,78.53
2017-09-04T07:34:07.038Z,78.57
2017-09-04T07:35:04.278Z,78.61
2017-09-04T07:36:01.570Z,78.65
2017-09-04T07:36:58.802Z,78.69
2017-09-04T07:37:56.052Z,78.73
2017-09-04T07:38:53.266Z,78.78
2017-09-04T07:39:50.934Z,78.80
2017-09-04T07:40:48.175Z,78.85
2017-09-04T07:41:45.473Z,78.89
2017-09-04T07:42:42.701Z,78.94
2017-09-04T07:43:40.090Z,78.99
2017-09-04T07:44:37.313Z,79.01
2017-09-04T07:45:36.837Z,79.05
2017-09-04T07:46:34.110Z,79.09
2017-09-04T07:47:31.325Z,79.11
2017-09-04T07:48:28.609Z,79.16
2017-09-04T07:49:25.826Z,79.20
2017-09-04T07:50:23.082Z,79.23
2017-09-04T07:51:20.309Z,79.27
2017-09-04T07:52:17.575Z,79.31
2017-09-04T07:53:14.822Z,79.32
2017-09-04T07:54:12.087Z,79.36
2017-09-04T07:55:09.344Z,79.40
2017-09-04T07:56:06.629Z,79.44
2017-09-04T07:57:03.851Z,79.48
2017-09-04T07:58:01.119Z,79.51
2017-09-04T07:58:58.376Z,79.53
2017-09-04T07:59:55.630Z,79.54
2017-09-04T08:00:52.836Z,79.56
2017-09-04T08:01:50.105Z,79.62
2017-09-04T08:02:47.354Z,79.68
2017-09-04T08:03:44.603Z,79.72
2017-09-04T08:04:41.808Z,79.74
2017-09-04T08:05:39.066Z,79.78
2017-09-04T08:06:36.355Z,79.79
2017-09-04T08:07:33.598Z,79.83
2017-09-04T08:08:30.813Z,79.88
2017-09-04T08:09:28.089Z,79.91
2017-09-04T08:10:25.328Z,79.96
2017-09-04T08:11:22.578Z,80.03
2017-09-04T08:12:19.854Z,80.09
2017-09-04T08:13:17.129Z,80.14
2017-09-04T08:14:14.390Z,80.18
2017-09-04T08:15:11.705Z,80.22
2017-09-04T08:16:08.961Z,80.26
2017-09-04T08:17:06.273Z,80.30
2017-09-04T08:18:03.535Z,80.34
2017-09-04T08:19:00.803Z,80.36
2017-09-04T08:19:58.540Z,80.35
2017-09-04T08:20:56.175Z,80.37
2017-09-04T08:21:53.457Z,80.38
2017-09-04T08:22:50.863Z,80.43
2017-09-04T08:23:48.169Z,80.45
2017-09-04T08:24:45.457Z,80.47
2017-09-04T08:25:42.693Z,80.47
2017-09-04T08:26:40.970Z,80.50
2017-09-04T08:27:38.266Z,80.53
2017-09-04T08:28:35.521Z,80.54
2017-09-04T08:29:32.781Z,80.57
2017-09-04T08:30:30.038Z,80.57
2017-09-04T08:31:27.321Z,80.62
2017-09-04T08:32:24.606Z,80.64
2017-09-04T08:33:21.833Z,80.68
2017-09-04T08:34:19.078Z,80.70
2017-09-04T08:35:16.292Z,80.74
2017-09-04T08:36:13.572Z,80.77
2017-09-04T08:37:10.841Z,80.84
2017-09-04T08:38:08.114Z,80.84
2017-09-04T08:39:05.344Z,80.92
2017-09-04T08:40:02.602Z,80.93
2017-09-04T08:40:59.837Z,80.97
2017-09-04T08:41:57.094Z,80.97
2017-09-04T08:42:54.331Z,81.07
2017-09-04T08:43:51.585Z,81.05
2017-09-04T08:44:50.881Z,81.10
2017-09-04T08:45:48.141Z,81.12
2017-09-04T08:46:45.380Z,81.16
2017-09-04T08:47:42.647Z,81.20
2017-09-04T08:48:39.966Z,81.23
2017-09-04T08:49:37.266Z,81.31
2017-09-04T08:50:36.586Z,81.32
2017-09-04T08:51:33.877Z,81.36
2017-09-04T08:52:31.153Z,81.42
2017-09-04T08:53:28.455Z,81.47
2017-09-04T08:54:25.741Z,81.52
2017-09-04T08:55:23.174Z,81.55
2017-09-04T08:56:20.466Z,81.60
2017-09-04T08:57:17.731Z,81.67
2017-09-04T08:58:15.083Z,81.70
2017-09-04T08:59:12.323Z,81.69
2017-09-04T09:00:09.567Z,81.74
2017-09-04T09:01:06.819Z,81.73
2017-09-04T09:02:04.062Z,81.74
2017-09-04T09:03:01.346Z,81.76
2017-09-04T09:03:58.642Z,81.81
2017-09-04T09:04:55.935Z,81.85
2017-09-04T09:05:53.192Z,81.88
2017-09-04T09:06:50.484Z,81.89
2017-09-04T09:07:48.120Z,81.92
2017-09-04T09:08:46.567Z,81.95
2017-09-04T09:09:44.099Z,81.97
2017-09-04T09:10:41.341Z,81.96
2017-09-04T09:11:38.939Z,81.98
2017-09-04T09:12:36.453Z,82.01
2017-09-04T09:13:33.725Z,82.02
2017-09-04T09:14:30.954Z,82.03
2017-09-04T09:15:28.221Z,82.05
2017-09-04T09:16:25.450Z,82.08
2017-09-04T09:17:22.712Z,82.11
2017-09-04T09:18:19.961Z,82.15
2017-09-04T09:19:17.221Z,82.10
2017-09-04T09:20:14.545Z,82.09
2017-09-04T09:21:11.878Z,82.12
2017-09-04T09:22:09.103Z,82.11
2017-09-04T09:23:06.410Z,82.15
2017-09-04T09:24:05.749Z,82.17
2017-09-04T09:25:02.969Z,82.16
2017-09-04T09:26:02.278Z,82.21
2017-09-04T09:27:01.594Z,82.25
2017-09-04T09:27:58.889Z,82.25
2017-09-04T09:28:56.231Z,82.28
2017-09-04T09:29:53.565Z,82.30
2017-09-04T09:30:50.861Z,82.32
2017-09-04T09:31:48.133Z,82.33
2017-09-04T09:32:45.439Z,82.35
2017-09-04T09:33:42.734Z,82.37
2017-09-04T09:34:39.954Z,82.37
2017-09-04T09:35:37.217Z,82.37
2017-09-04T09:36:34.478Z,82.40
2017-09-04T09:37:31.725Z,82.40
2017-09-04T09:38:28.975Z,82.40
2017-09-04T09:39:26.250Z,82.44
2017-09-04T09:40:23.481Z,82.46
2017-09-04T09:41:20.748Z,82.48
2017-09-04T09:42:17.971Z,82.55
2017-09-04T09:43:15.233Z,82.57
2017-09-04T09:44:12.486Z,82.60
2017-09-04T09:45:09.747Z,82.63
2017-09-04T09:46:06.966Z,82.71
2017-09-04T09:47:04.221Z,82.74
2017-09-04T09:48:01.477Z,82.77
2017-09-04T09:48:58.762Z,82.80
2017-09-04T09:50:00.638Z,82.81
2017-09-04T09:50:59.938Z,82.86
2017-09-04T09:51:59.226Z,82.89
2017-09-04T09:52:56.552Z,82.90
2017-09-04T09:53:53.910Z,82.89
2017-09-04T09:54:51.234Z,82.91
2017-09-04T09:55:48.531Z,82.90
2017-09-04T09:56:45.922Z,82.93
2017-09-04T09:57:43.245Z,82.92
2017-09-04T09:58:40.641Z,82.91
2017-09-04T09:59:37.954Z,82.95
2017-09-04T10:00:35.334Z,82.93
2017-09-04T10:01:34.752Z,82.98
2017-09-04T10:02:32.083Z,83.00
2017-09-04T10:03:29.400Z,83.04
2017-09-04T10:04:26.861Z,83.08
2017-09-04T10:05:24.217Z,83.09
2017-09-04T10:06:21.513Z,83.11
2017-09-04T10:07:18.838Z,83.12
2017-09-04T10:08:16.167Z,83.15
2017-09-04T10:09:13.513Z,83.16
2017-09-04T10:10:13.110Z,83.20
2017-09-04T10:11:10.410Z,83.22
2017-09-04T10:12:07.774Z,83.23
2017-09-04T10:13:05.083Z,83.24
2017-09-04T10:14:02.451Z,83.28
2017-09-04T10:15:00.110Z,83.29
2017-09-04T10:15:57.421Z,83.31
2017-09-04T10:16:54.717Z,83.27
2017-09-04T10:17:52.113Z,83.24
2017-09-04T10:18:49.416Z,83.18
2017-09-04T10:19:46.746Z,83.13
2017-09-04T10:20:44.044Z,83.12
2017-09-04T10:21:41.373Z,83.10
2017-09-04T10:22:38.686Z,83.12
2017-09-04T10:23:35.998Z,83.11
2017-09-04T10:24:33.362Z,83.08
2017-09-04T10:25:30.698Z,83.08
2017-09-04T10:26:28.004Z,83.08
2017-09-04T10:27:25.329Z,83.07
2017-09-04T10:28:22.658Z,83.06
2017-09-04T10:29:19.985Z,83.06
2017-09-04T10:30:17.291Z,83.08
2017-09-04T10:31:14.606Z,83.10
2017-09-04T10:32:11.934Z,83.10
2017-09-04T10:33:09.245Z,83.09
2017-09-04T10:34:06.605Z,83.09
2017-09-04T10:35:03.961Z,83.10
2017-09-04T10:36:01.342Z,83.11
2017-09-04T10:36:58.694Z,83.13
2017-09-04T10:37:56.026Z,83.13
2017-09-04T10:38:53.358Z,83.11
2017-09-04T10:39:50.674Z,83.08
2017-09-04T10:40:48.023Z,83.06
2017-09-04T10:41:45.350Z,83.05
2017-09-04T10:42:42.704Z,83.05
2017-09-04T10:43:40.007Z,83.09
2017-09-04T10:44:37.348Z,83.12
2017-09-04T10:45:34.714Z,83.15
2017-09-04T10:46:32.067Z,83.18
2017-09-04T10:47:29.391Z,83.14
2017-09-04T10:48:26.795Z,83.16
2017-09-04T10:49:24.149Z,83.16
2017-09-04T10:50:21.595Z,83.16
2017-09-04T10:51:18.918Z,83.13
2017-09-04T10:52:16.306Z,83.15
2017-09-04T10:53:13.722Z,83.17
2017-09-04T10:54:11.077Z,83.19
2017-09-04T10:55:08.414Z,83.17
2017-09-04T10:56:05.705Z,83.20
2017-09-04T10:57:02.971Z,83.20
2017-09-04T10:58:00.259Z,83.21
2017-09-04T10:58:57.506Z,83.17
2017-09-04T10:59:54.858Z,83.16
2017-09-04T11:00:52.142Z,83.14
2017-09-04T11:01:49.447Z,83.12
2017-09-04T11:02:46.698Z,83.12
2017-09-04T11:03:43.965Z,83.08
2017-09-04T11:04:41.206Z,83.10
2017-09-04T11:05:38.531Z,83.08
2017-09-04T11:06:35.765Z,83.07
2017-09-04T11:07:33.194Z,83.07
2017-09-04T11:08:30.465Z,83.11
2017-09-04T11:09:27.731Z,83.08
2017-09-04T11:10:24.966Z,83.09
2017-09-04T11:11:24.302Z,83.09
2017-09-04T11:12:21.641Z,83.08
2017-09-04T11:13:18.942Z,83.08
2017-09-04T11:14:16.309Z,83.08
2017-09-04T11:15:13.645Z,83.05
2017-09-04T11:16:10.949Z,83.06
2017-09-04T11:17:08.267Z,83.03
2017-09-04T11:18:05.679Z,83.01
2017-09-04T11:19:03.079Z,82.99
2017-09-04T11:20:00.477Z,83.02
2017-09-04T11:20:57.892Z,83.01
2017-09-04T11:21:55.382Z,83.05
2017-09-04T11:22:52.735Z,83.06
2017-09-04T11:23:50.085Z,83.06
2017-09-04T11:24:47.473Z,83.05
2017-09-04T11:25:44.866Z,83.08
2017-09-04T11:26:42.238Z,83.04
2017-09-04T11:27:41.589Z,83.03
2017-09-04T11:28:38.935Z,82.99
2017-09-04T11:29:36.214Z,82.99
2017-09-04T11:30:33.612Z,82.97
2017-09-04T11:31:30.973Z,82.94
2017-09-04T11:32:28.337Z,82.97
2017-09-04T11:33:25.613Z,82.94
2017-09-04T11:34:22.992Z,82.91
2017-09-04T11:35:20.306Z,82.91
2017-09-04T11:36:17.627Z,82.93
2017-09-04T11:37:14.964Z,82.94
2017-09-04T11:38:12.374Z,82.92
2017-09-04T11:39:09.734Z,82.93
2017-09-04T11:40:07.122Z,82.92
2017-09-04T11:41:04.390Z,82.88
2017-09-04T11:42:01.764Z,82.86
2017-09-04T11:42:59.019Z,82.89
2017-09-04T11:43:56.340Z,82.86
2017-09-04T11:44:53.586Z,82.87
2017-09-04T11:45:50.903Z,82.87
2017-09-04T11:46:48.191Z,82.90
2017-09-04T11:47:45.555Z,82.89
2017-09-04T11:48:42.901Z,82.87
2017-09-04T11:49:40.315Z,82.84
2017-09-04T11:50:37.595Z,82.79
2017-09-04T11:51:34.947Z,82.80
2017-09-04T11:52:32.324Z,82.77
2017-09-04T11:53:29.768Z,82.76
2017-09-04T11:54:27.116Z,82.74
2017-09-04T11:55:24.436Z,82.72
2017-09-04T11:56:21.730Z,82.74
2017-09-04T11:57:21.059Z,82.74
2017-09-04T11:58:18.310Z,82.75
2017-09-04T11:59:15.556Z,82.73
2017-09-04T12:00:12.806Z,82.70
2017-09-04T12:01:10.094Z,82.69
2017-09-04T12:02:07.366Z,82.69
2017-09-04T12:03:04.662Z,82.71
2017-09-04T12:04:01.927Z,82.75
2017-09-04T12:04:59.262Z,82.73
2017-09-04T12:05:56.555Z,82.71
2017-09-04T12:06:53.850Z,82.69
2017-09-04T12:07:51.123Z,82.69
2017-09-04T12:08:48.486Z,82.65
2017-09-04T12:09:45.735Z,82.68
2017-09-04T12:10:43.123Z,82.68
2017-09-04T12:11:40.504Z,82.66
2017-09-04T12:12:37.865Z,82.67
2017-09-04T12:13:35.178Z,82.68
2017-09-04T12:14:32.445Z,82.71
2017-09-04T12:15:29.815Z,82.69
2017-09-04T12:16:27.066Z,82.67
2017-09-04T12:17:24.322Z,82.66
2017-09-04T12:18:21.617Z,82.67